sensor_id;sensor_type;location;lat;lon;timestamp;pressure;altitude;pressure_sealevel;temperature;humidity
30110;BME280;14965;50.660;13.226;2022-11-20T00:01:12;94322.53;;;-8.16;77.68
30110;BME280;14965;50.660;13.226;2022-11-20T00:04:17;94320.97;;;-8.17;78.05
30110;BME280;14965;50.660;13.226;2022-11-20T00:07:26;94332.13;;;-8.15;77.83
30110;BME280;14965;50.660;13.226;2022-11-20T00:10:42;94328.91;;;-8.09;78.41
30110;BME280;14965;50.660;13.226;2022-11-20T00:13:48;94327.69;;;-7.99;78.39
30110;BME280;14965;50.660;13.226;2022-11-20T00:17:58;94330.25;;;-7.90;79.10
30110;BME280;14965;50.660;13.226;2022-11-20T00:21:27;94337.09;;;-7.93;78.66
30110;BME280;14965;50.660;13.226;2022-11-20T00:25:09;94335.53;;;-7.94;77.87
30110;BME280;14965;50.660;13.226;2022-11-20T00:28:25;94337.31;;;-7.98;77.55
30110;BME280;14965;50.660;13.226;2022-11-20T00:31:23;94338.97;;;-8.06;77.34
30110;BME280;14965;50.660;13.226;2022-11-20T00:34:24;94342.28;;;-8.21;76.68
30110;BME280;14965;50.660;13.226;2022-11-20T00:41:21;94335.78;;;-8.32;77.26
30110;BME280;14965;50.660;13.226;2022-11-20T00:58:47;94334.66;;;-8.56;78.78
30110;BME280;14965;50.660;13.226;2022-11-20T01:02:24;94342.34;;;-8.54;79.56
30110;BME280;14965;50.660;13.226;2022-11-20T01:06:06;94337.00;;;-8.54;79.19
30110;BME280;14965;50.660;13.226;2022-11-20T01:12:54;94346.19;;;-8.43;78.87
30110;BME280;14965;50.660;13.226;2022-11-20T01:15:50;94340.03;;;-8.43;78.34
30110;BME280;14965;50.660;13.226;2022-11-20T01:19:16;94338.59;;;-8.41;78.06
30110;BME280;14965;50.660;13.226;2022-11-20T01:23:09;94334.56;;;-8.47;77.46
30110;BME280;14965;50.660;13.226;2022-11-20T01:30:56;94320.28;;;-8.51;77.88
30110;BME280;14965;50.660;13.226;2022-11-20T01:34:30;94326.75;;;-8.52;77.76
30110;BME280;14965;50.660;13.226;2022-11-20T01:39:38;94315.66;;;-8.63;77.66
30110;BME280;14965;50.660;13.226;2022-11-20T01:52:29;94303.06;;;-8.62;78.42
30110;BME280;14965;50.660;13.226;2022-11-20T01:55:53;94304.31;;;-8.60;78.51
30110;BME280;14965;50.660;13.226;2022-11-20T01:59:35;94305.75;;;-8.62;77.27
30110;BME280;14965;50.660;13.226;2022-11-20T02:08:05;94311.66;;;-8.69;77.52
30110;BME280;14965;50.660;13.226;2022-11-20T02:14:34;94307.63;;;-8.63;77.50
30110;BME280;14965;50.660;13.226;2022-11-20T02:22:41;94298.06;;;-8.51;77.56
30110;BME280;14965;50.660;13.226;2022-11-20T02:25:20;94300.41;;;-8.50;77.83
30110;BME280;14965;50.660;13.226;2022-11-20T02:28:50;94292.13;;;-8.57;77.50
30110;BME280;14965;50.660;13.226;2022-11-20T03:28:39;94267.81;;;-8.64;77.55
30110;BME280;14965;50.660;13.226;2022-11-20T03:32:08;94268.13;;;-8.66;76.99
30110;BME280;14965;50.660;13.226;2022-11-20T03:39:42;94269.59;;;-8.68;76.87
30110;BME280;14965;50.660;13.226;2022-11-20T03:43:17;94266.47;;;-8.70;77.25
30110;BME280;14965;50.660;13.226;2022-11-20T03:50:48;94261.97;;;-8.79;77.74
30110;BME280;14965;50.660;13.226;2022-11-20T03:54:40;94265.03;;;-8.68;78.57
30110;BME280;14965;50.660;13.226;2022-11-20T04:12:03;94241.16;;;-8.73;78.79
30110;BME280;14965;50.660;13.226;2022-11-20T04:14:29;94243.94;;;-8.69;78.64
30110;BME280;14965;50.660;13.226;2022-11-20T04:16:55;94239.47;;;-8.65;78.42
30110;BME280;14965;50.660;13.226;2022-11-20T04:19:21;94241.06;;;-8.64;78.49
30110;BME280;14965;50.660;13.226;2022-11-20T04:23:24;94241.72;;;-8.67;78.34
30110;BME280;14965;50.660;13.226;2022-11-20T04:29:30;94235.47;;;-8.71;77.88
30110;BME280;14965;50.660;13.226;2022-11-20T04:36:37;94241.25;;;-8.69;77.59
30110;BME280;14965;50.660;13.226;2022-11-20T04:43:46;94234.81;;;-8.68;77.77
30110;BME280;14965;50.660;13.226;2022-11-20T04:52:40;94247.28;;;-8.72;78.01
30110;BME280;14965;50.660;13.226;2022-11-20T04:55:07;94250.41;;;-8.70;77.89
30110;BME280;14965;50.660;13.226;2022-11-20T05:05:10;94244.81;;;-8.65;78.04
30110;BME280;14965;50.660;13.226;2022-11-20T05:08:37;94252.09;;;-8.54;77.97
30110;BME280;14965;50.660;13.226;2022-11-20T05:12:23;94245.06;;;-8.34;79.07
30110;BME280;14965;50.660;13.226;2022-11-20T06:06:48;94196.97;;;-8.18;80.31
30110;BME280;14965;50.660;13.226;2022-11-20T06:10:23;94196.53;;;-8.20;79.27
30110;BME280;14965;50.660;13.226;2022-11-20T06:13:53;94187.38;;;-8.19;78.55
30110;BME280;14965;50.660;13.226;2022-11-20T06:20:48;94188.94;;;-8.18;78.57
30110;BME280;14965;50.660;13.226;2022-11-20T06:28:39;94202.66;;;-8.07;78.73
30110;BME280;14965;50.660;13.226;2022-11-20T06:46:43;94211.94;;;-8.17;78.78
30110;BME280;14965;50.660;13.226;2022-11-20T06:49:17;94218.06;;;-8.16;78.97
30110;BME280;14965;50.660;13.226;2022-11-20T06:51:43;94216.84;;;-8.19;78.66
30110;BME280;14965;50.660;13.226;2022-11-20T06:54:09;94217.16;;;-8.20;78.74
30110;BME280;14965;50.660;13.226;2022-11-20T06:56:36;94200.66;;;-8.35;77.72
30110;BME280;14965;50.660;13.226;2022-11-20T06:59:04;94204.50;;;-8.48;78.06
30110;BME280;14965;50.660;13.226;2022-11-20T07:01:31;94208.38;;;-8.45;78.54
30110;BME280;14965;50.660;13.226;2022-11-20T07:33:06;94215.75;;;-7.25;79.98
30110;BME280;14965;50.660;13.226;2022-11-20T07:36:23;94218.19;;;-7.20;79.85
30110;BME280;14965;50.660;13.226;2022-11-20T07:39:49;94222.53;;;-7.15;80.24
30110;BME280;14965;50.660;13.226;2022-11-20T07:42:36;94217.25;;;-7.12;80.11
30110;BME280;14965;50.660;13.226;2022-11-20T07:45:21;94210.19;;;-7.04;79.69
30110;BME280;14965;50.660;13.226;2022-11-20T07:47:47;94213.84;;;-6.96;80.18
30110;BME280;14965;50.660;13.226;2022-11-20T07:50:21;94212.13;;;-6.89;80.01
30110;BME280;14965;50.660;13.226;2022-11-20T07:52:52;94212.28;;;-6.82;79.94
30110;BME280;14965;50.660;13.226;2022-11-20T07:55:25;94216.31;;;-6.75;79.75
30110;BME280;14965;50.660;13.226;2022-11-20T07:57:54;94208.09;;;-6.67;79.57
30110;BME280;14965;50.660;13.226;2022-11-20T08:00:23;94209.03;;;-6.59;79.83
30110;BME280;14965;50.660;13.226;2022-11-20T08:02:49;94204.97;;;-6.53;79.74
30110;BME280;14965;50.660;13.226;2022-11-20T08:05:15;94204.00;;;-6.45;79.70
30110;BME280;14965;50.660;13.226;2022-11-20T08:07:44;94206.19;;;-6.35;79.49
30110;BME280;14965;50.660;13.226;2022-11-20T08:10:15;94203.75;;;-6.24;79.70
30110;BME280;14965;50.660;13.226;2022-11-20T08:12:45;94209.72;;;-6.15;79.16
30110;BME280;14965;50.660;13.226;2022-11-20T08:15:11;94200.34;;;-6.05;79.63
30110;BME280;14965;50.660;13.226;2022-11-20T08:17:40;94214.09;;;-5.91;79.23
30110;BME280;14965;50.660;13.226;2022-11-20T08:20:14;94205.22;;;-5.76;79.11
30110;BME280;14965;50.660;13.226;2022-11-20T08:22:44;94204.38;;;-5.60;78.91
30110;BME280;14965;50.660;13.226;2022-11-20T08:25:10;94194.69;;;-5.45;78.65
30110;BME280;14965;50.660;13.226;2022-11-20T08:27:50;94195.28;;;-5.36;78.19
30110;BME280;14965;50.660;13.226;2022-11-20T08:30:29;94188.13;;;-5.29;77.99
30110;BME280;14965;50.660;13.226;2022-11-20T08:33:07;94176.91;;;-5.11;78.03
30110;BME280;14965;50.660;13.226;2022-11-20T08:35:36;94178.75;;;-4.96;77.81
30110;BME280;14965;50.660;13.226;2022-11-20T08:38:05;94178.16;;;-4.86;76.53
30110;BME280;14965;50.660;13.226;2022-11-20T08:40:34;94170.69;;;-4.73;76.74
30110;BME280;14965;50.660;13.226;2022-11-20T08:43:03;94171.72;;;-4.58;76.45
30110;BME280;14965;50.660;13.226;2022-11-20T08:45:29;94168.91;;;-4.42;76.15
30110;BME280;14965;50.660;13.226;2022-11-20T08:48:02;94172.97;;;-4.29;76.85
30110;BME280;14965;50.660;13.226;2022-11-20T08:50:29;94165.03;;;-4.18;77.60
30110;BME280;14965;50.660;13.226;2022-11-20T08:53:03;94162.63;;;-4.01;77.22
30110;BME280;14965;50.660;13.226;2022-11-20T08:55:29;94158.28;;;-3.82;77.16
30110;BME280;14965;50.660;13.226;2022-11-20T08:57:58;94155.03;;;-3.65;78.10
30110;BME280;14965;50.660;13.226;2022-11-20T09:00:24;94155.25;;;-3.51;78.99
30110;BME280;14965;50.660;13.226;2022-11-20T09:02:50;94156.50;;;-3.41;79.68
30110;BME280;14965;50.660;13.226;2022-11-20T09:05:19;94154.25;;;-3.35;80.15
30110;BME280;14965;50.660;13.226;2022-11-20T09:07:55;94152.84;;;-3.26;80.64
30110;BME280;14965;50.660;13.226;2022-11-20T09:10:22;94157.66;;;-3.08;81.24
30110;BME280;14965;50.660;13.226;2022-11-20T09:12:51;94156.66;;;-2.93;80.89
30110;BME280;14965;50.660;13.226;2022-11-20T09:15:19;94152.59;;;-2.76;80.78
30110;BME280;14965;50.660;13.226;2022-11-20T09:17:51;94159.31;;;-2.63;80.78
30110;BME280;14965;50.660;13.226;2022-11-20T09:20:20;94165.19;;;-2.54;79.82
30110;BME280;14965;50.660;13.226;2022-11-20T09:22:56;94157.91;;;-2.46;79.63
30110;BME280;14965;50.660;13.226;2022-11-20T09:25:23;94161.13;;;-2.33;79.91
30110;BME280;14965;50.660;13.226;2022-11-20T09:27:55;94153.84;;;-2.22;79.57
30110;BME280;14965;50.660;13.226;2022-11-20T09:30:24;94153.19;;;-2.12;79.52
30110;BME280;14965;50.660;13.226;2022-11-20T09:32:54;94155.94;;;-2.05;79.90
30110;BME280;14965;50.660;13.226;2022-11-20T09:35:20;94146.72;;;-1.93;79.88
30110;BME280;14965;50.660;13.226;2022-11-20T09:37:46;94157.22;;;-1.88;80.41
30110;BME280;14965;50.660;13.226;2022-11-20T09:40:21;94146.41;;;-1.88;80.58
30110;BME280;14965;50.660;13.226;2022-11-20T09:42:56;94139.88;;;-1.76;81.13
30110;BME280;14965;50.660;13.226;2022-11-20T09:45:43;94143.41;;;-1.68;81.49
30110;BME280;14965;50.660;13.226;2022-11-20T09:48:32;94138.41;;;-1.66;81.69
30110;BME280;14965;50.660;13.226;2022-11-20T09:51:08;94127.59;;;-1.63;82.23
30110;BME280;14965;50.660;13.226;2022-11-20T09:53:54;94124.13;;;-1.60;82.58
30110;BME280;14965;50.660;13.226;2022-11-20T09:56:23;94122.63;;;-1.50;83.10
30110;BME280;14965;50.660;13.226;2022-11-20T09:58:58;94122.69;;;-1.36;83.62
30110;BME280;14965;50.660;13.226;2022-11-20T10:01:31;94122.00;;;-1.15;83.80
30110;BME280;14965;50.660;13.226;2022-11-20T10:04:06;94127.47;;;-1.08;83.78
30110;BME280;14965;50.660;13.226;2022-11-20T10:06:37;94123.19;;;-1.05;83.82
30110;BME280;14965;50.660;13.226;2022-11-20T10:09:20;94125.13;;;-1.13;84.20
30110;BME280;14965;50.660;13.226;2022-11-20T10:11:59;94115.06;;;-1.12;84.80
30110;BME280;14965;50.660;13.226;2022-11-20T10:14:47;94116.63;;;-1.08;85.33
30110;BME280;14965;50.660;13.226;2022-11-20T10:17:30;94116.63;;;-0.97;85.32
30110;BME280;14965;50.660;13.226;2022-11-20T10:20:16;94129.44;;;-0.90;85.85
30110;BME280;14965;50.660;13.226;2022-11-20T10:23:19;94138.75;;;-0.88;85.89
30110;BME280;14965;50.660;13.226;2022-11-20T10:25:58;94138.75;;;-0.84;86.26
30110;BME280;14965;50.660;13.226;2022-11-20T10:28:48;94132.56;;;-0.78;86.97
30110;BME280;14965;50.660;13.226;2022-11-20T10:31:31;94134.53;;;-0.71;87.17
30110;BME280;14965;50.660;13.226;2022-11-20T10:34:05;94133.75;;;-0.75;86.80
30110;BME280;14965;50.660;13.226;2022-11-20T10:36:37;94147.66;;;-0.80;87.38
30110;BME280;14965;50.660;13.226;2022-11-20T10:39:22;94151.50;;;-0.88;87.56
30110;BME280;14965;50.660;13.226;2022-11-20T10:41:53;94145.31;;;-0.96;88.30
30110;BME280;14965;50.660;13.226;2022-11-20T10:44:21;94148.34;;;-1.05;89.09
30110;BME280;14965;50.660;13.226;2022-11-20T10:46:50;94141.75;;;-1.11;89.52
30110;BME280;14965;50.660;13.226;2022-11-20T10:49:19;94133.63;;;-1.11;89.61
30110;BME280;14965;50.660;13.226;2022-11-20T10:52:00;94136.72;;;-1.09;89.96
30110;BME280;14965;50.660;13.226;2022-11-20T10:54:39;94137.91;;;-1.06;90.15
30110;BME280;14965;50.660;13.226;2022-11-20T10:57:23;94131.72;;;-1.03;89.88
30110;BME280;14965;50.660;13.226;2022-11-20T11:00:05;94134.84;;;-0.97;90.09
30110;BME280;14965;50.660;13.226;2022-11-20T11:02:39;94128.66;;;-0.84;89.97
30110;BME280;14965;50.660;13.226;2022-11-20T11:05:22;94122.91;;;-0.75;89.36
30110;BME280;14965;50.660;13.226;2022-11-20T11:07:52;94115.53;;;-0.67;89.45
30110;BME280;14965;50.660;13.226;2022-11-20T11:10:24;94112.84;;;-0.60;89.23
30110;BME280;14965;50.660;13.226;2022-11-20T11:12:53;94124.88;;;-0.54;88.97
30110;BME280;14965;50.660;13.226;2022-11-20T11:15:27;94111.31;;;-0.54;88.78
30110;BME280;14965;50.660;13.226;2022-11-20T11:17:56;94109.75;;;-0.52;88.77
30110;BME280;14965;50.660;13.226;2022-11-20T11:20:24;94107.06;;;-0.48;88.89
30110;BME280;14965;50.660;13.226;2022-11-20T11:22:54;94106.28;;;-0.45;89.05
30110;BME280;14965;50.660;13.226;2022-11-20T11:25:27;94100.84;;;-0.45;88.80
30110;BME280;14965;50.660;13.226;2022-11-20T11:27:57;94090.78;;;-0.44;88.78
30110;BME280;14965;50.660;13.226;2022-11-20T11:30:25;94090.00;;;-0.45;88.90
30110;BME280;14965;50.660;13.226;2022-11-20T11:33:05;94092.72;;;-0.45;89.34
30110;BME280;14965;50.660;13.226;2022-11-20T11:35:32;94076.81;;;-0.43;89.25
30110;BME280;14965;50.660;13.226;2022-11-20T11:38:05;94075.66;;;-0.38;89.01
30110;BME280;14965;50.660;13.226;2022-11-20T11:40:35;94073.34;;;-0.40;88.69
30110;BME280;14965;50.660;13.226;2022-11-20T11:43:06;94084.59;;;-0.41;89.00
30110;BME280;14965;50.660;13.226;2022-11-20T11:45:32;94080.31;;;-0.42;88.92
30110;BME280;14965;50.660;13.226;2022-11-20T11:48:04;94080.31;;;-0.42;88.94
30110;BME280;14965;50.660;13.226;2022-11-20T11:50:34;94079.16;;;-0.48;89.29
30110;BME280;14965;50.660;13.226;2022-11-20T11:53:12;94076.84;;;-0.50;89.50
30110;BME280;14965;50.660;13.226;2022-11-20T11:55:45;94079.91;;;-0.55;89.72
30110;BME280;14965;50.660;13.226;2022-11-20T11:58:29;94081.84;;;-0.59;89.85
30110;BME280;14965;50.660;13.226;2022-11-20T12:01:07;94067.53;;;-0.60;89.79
30110;BME280;14965;50.660;13.226;2022-11-20T12:03:38;94071.78;;;-0.59;90.32
30110;BME280;14965;50.660;13.226;2022-11-20T12:06:11;94067.91;;;-0.65;90.30
30110;BME280;14965;50.660;13.226;2022-11-20T12:08:48;94067.53;;;-0.67;90.49
30110;BME280;14965;50.660;13.226;2022-11-20T12:11:23;94066.72;;;-0.67;90.66
30110;BME280;14965;50.660;13.226;2022-11-20T12:13:57;94070.25;;;-0.67;91.15
30110;BME280;14965;50.660;13.226;2022-11-20T12:16:24;94063.25;;;-0.64;91.25
30110;BME280;14965;50.660;13.226;2022-11-20T12:18:52;94068.69;;;-0.61;91.18
30110;BME280;14965;50.660;13.226;2022-11-20T12:21:28;94065.97;;;-0.57;91.41
30110;BME280;14965;50.660;13.226;2022-11-20T12:24:12;94068.69;;;-0.57;91.26
30110;BME280;14965;50.660;13.226;2022-11-20T12:26:56;94070.63;;;-0.54;91.42
30110;BME280;14965;50.660;13.226;2022-11-20T12:29:40;94063.28;;;-0.54;91.19
30110;BME280;14965;50.660;13.226;2022-11-20T12:32:38;94052.00;;;-0.63;91.74
30110;BME280;14965;50.660;13.226;2022-11-20T12:35:34;94053.94;;;-0.63;91.96
30110;BME280;14965;50.660;13.226;2022-11-20T12:38:36;94047.00;;;-0.61;92.18
30110;BME280;14965;50.660;13.226;2022-11-20T12:41:13;94064.81;;;-0.60;92.36
30110;BME280;14965;50.660;13.226;2022-11-20T12:43:56;94064.03;;;-0.60;92.27
30110;BME280;14965;50.660;13.226;2022-11-20T12:46:32;94046.22;;;-0.61;92.38
30110;BME280;14965;50.660;13.226;2022-11-20T12:49:33;94045.44;;;-0.62;92.80
30110;BME280;14965;50.660;13.226;2022-11-20T12:52:27;94048.53;;;-0.63;92.82
30110;BME280;14965;50.660;13.226;2022-11-20T12:55:25;94050.09;;;-0.66;93.07
30110;BME280;14965;50.660;13.226;2022-11-20T12:58:02;94053.56;;;-0.72;93.48
30110;BME280;14965;50.660;13.226;2022-11-20T13:00:32;94061.69;;;-0.76;93.64
30110;BME280;14965;50.660;13.226;2022-11-20T13:03:23;94052.78;;;-0.77;93.85
30110;BME280;14965;50.660;13.226;2022-11-20T13:06:05;94053.19;;;-0.74;93.91
30110;BME280;14965;50.660;13.226;2022-11-20T13:08:38;94046.19;;;-0.76;94.52
30110;BME280;14965;50.660;13.226;2022-11-20T13:11:17;94040.78;;;-0.76;94.47
30110;BME280;14965;50.660;13.226;2022-11-20T13:14:11;94036.91;;;-0.82;94.99
30110;BME280;14965;50.660;13.226;2022-11-20T13:17:05;94038.44;;;-0.84;95.07
30110;BME280;14965;50.660;13.226;2022-11-20T13:19:33;94036.16;;;-0.79;95.08
30110;BME280;14965;50.660;13.226;2022-11-20T13:22:00;94031.09;;;-0.77;95.58
30110;BME280;14965;50.660;13.226;2022-11-20T13:24:30;94026.84;;;-0.70;95.43
30110;BME280;14965;50.660;13.226;2022-11-20T13:30:13;94030.72;;;-0.68;94.83
30110;BME280;14965;50.660;13.226;2022-11-20T13:32:48;94033.06;;;-0.66;95.01
30110;BME280;14965;50.660;13.226;2022-11-20T13:35:26;94026.06;;;-0.64;94.47
30110;BME280;14965;50.660;13.226;2022-11-20T13:38:05;94022.22;;;-0.66;94.08
30110;BME280;14965;50.660;13.226;2022-11-20T13:40:36;94019.50;;;-0.66;93.89
30110;BME280;14965;50.660;13.226;2022-11-20T13:43:15;94025.31;;;-0.75;93.71
30110;BME280;14965;50.660;13.226;2022-11-20T13:45:55;94027.22;;;-0.72;93.71
30110;BME280;14965;50.660;13.226;2022-11-20T13:48:24;94032.66;;;-0.72;93.77
30110;BME280;14965;50.660;13.226;2022-11-20T13:51:07;94038.06;;;-0.76;93.39
30110;BME280;14965;50.660;13.226;2022-11-20T13:54:17;94033.81;;;-0.80;93.34
30110;BME280;14965;50.660;13.226;2022-11-20T13:57:04;94041.56;;;-0.86;93.62
30110;BME280;14965;50.660;13.226;2022-11-20T13:59:49;94043.50;;;-0.83;93.55
30110;BME280;14965;50.660;13.226;2022-11-20T14:02:21;94037.28;;;-0.90;93.53
30110;BME280;14965;50.660;13.226;2022-11-20T14:04:52;94043.09;;;-0.92;93.67
30110;BME280;14965;50.660;13.226;2022-11-20T14:07:24;94048.50;;;-0.99;93.31
30110;BME280;14965;50.660;13.226;2022-11-20T14:09:53;94047.72;;;-0.99;93.31
30110;BME280;14965;50.660;13.226;2022-11-20T14:12:27;94037.66;;;-0.99;93.31
30110;BME280;14965;50.660;13.226;2022-11-20T14:14:54;94039.59;;;-0.92;93.29
30110;BME280;14965;50.660;13.226;2022-11-20T14:17:24;94044.25;;;-0.89;93.06
30110;BME280;14965;50.660;13.226;2022-11-20T14:19:52;94039.97;;;-0.97;92.26
30110;BME280;14965;50.660;13.226;2022-11-20T14:22:22;94051.59;;;-0.97;92.66
30110;BME280;14965;50.660;13.226;2022-11-20T14:25:02;94058.56;;;-0.99;91.85
30110;BME280;14965;50.660;13.226;2022-11-20T14:27:34;94050.03;;;-0.98;92.04
30110;BME280;14965;50.660;13.226;2022-11-20T14:30:03;94050.81;;;-0.94;92.30
30110;BME280;14965;50.660;13.226;2022-11-20T14:32:31;94055.50;;;-0.91;92.55
30110;BME280;14965;50.660;13.226;2022-11-20T14:35:08;94052.00;;;-0.88;92.48
30110;BME280;14965;50.660;13.226;2022-11-20T14:37:38;94045.03;;;-0.85;92.36
30110;BME280;14965;50.660;13.226;2022-11-20T14:40:25;94040.78;;;-0.83;92.48
30110;BME280;14965;50.660;13.226;2022-11-20T14:42:53;94036.50;;;-0.84;92.63
30110;BME280;14965;50.660;13.226;2022-11-20T14:45:20;94041.53;;;-0.89;92.40
30110;BME280;14965;50.660;13.226;2022-11-20T14:47:47;94038.06;;;-0.90;92.28
30110;BME280;14965;50.660;13.226;2022-11-20T14:50:19;94035.72;;;-0.95;92.06
30110;BME280;14965;50.660;13.226;2022-11-20T14:52:55;94036.91;;;-0.96;92.10
30110;BME280;14965;50.660;13.226;2022-11-20T14:55:31;94024.50;;;-1.04;91.92
30110;BME280;14965;50.660;13.226;2022-11-20T14:58:03;94030.66;;;-1.11;91.95
30110;BME280;14965;50.660;13.226;2022-11-20T15:00:31;94031.03;;;-1.09;92.18
30110;BME280;14965;50.660;13.226;2022-11-20T15:02:58;94036.88;;;-1.03;92.10
30110;BME280;14965;50.660;13.226;2022-11-20T15:05:37;94036.47;;;-1.02;92.53
30110;BME280;14965;50.660;13.226;2022-11-20T15:08:10;94041.53;;;-1.00;92.56
30110;BME280;14965;50.660;13.226;2022-11-20T15:10:37;94045.00;;;-1.07;92.63
30110;BME280;14965;50.660;13.226;2022-11-20T15:13:11;94030.69;;;-1.07;92.45
30110;BME280;14965;50.660;13.226;2022-11-20T15:15:45;94032.22;;;-1.06;92.43
30110;BME280;14965;50.660;13.226;2022-11-20T15:18:14;94037.63;;;-1.13;91.61
30110;BME280;14965;50.660;13.226;2022-11-20T15:20:41;94038.41;;;-1.20;91.52
30110;BME280;14965;50.660;13.226;2022-11-20T15:23:11;94045.34;;;-1.22;91.45
30110;BME280;14965;50.660;13.226;2022-11-20T15:25:38;94048.44;;;-1.24;91.78
30110;BME280;14965;50.660;13.226;2022-11-20T15:28:16;94049.97;;;-1.27;91.98
30110;BME280;14965;50.660;13.226;2022-11-20T15:30:43;94037.97;;;-1.33;92.37
30110;BME280;14965;50.660;13.226;2022-11-20T15:33:10;94043.75;;;-1.34;91.64
30110;BME280;14965;50.660;13.226;2022-11-20T15:35:36;94046.47;;;-1.38;91.40
30110;BME280;14965;50.660;13.226;2022-11-20T15:38:02;94047.59;;;-1.42;91.10
30110;BME280;14965;50.660;13.226;2022-11-20T15:40:28;94051.91;;;-1.38;91.22
30110;BME280;14965;50.660;13.226;2022-11-20T15:42:54;94055.38;;;-1.34;91.35
30110;BME280;14965;50.660;13.226;2022-11-20T15:45:30;94052.25;;;-1.39;91.32
30110;BME280;14965;50.660;13.226;2022-11-20T15:47:58;94053.81;;;-1.38;91.24
30110;BME280;14965;50.660;13.226;2022-11-20T15:50:30;94056.91;;;-1.40;91.42
30110;BME280;14965;50.660;13.226;2022-11-20T15:52:59;94063.09;;;-1.36;91.61
30110;BME280;14965;50.660;13.226;2022-11-20T15:55:26;94051.09;;;-1.35;91.60
30110;BME280;14965;50.660;13.226;2022-11-20T15:57:52;94051.50;;;-1.40;91.70
30110;BME280;14965;50.660;13.226;2022-11-20T16:00:18;94054.59;;;-1.38;91.82
30110;BME280;14965;50.660;13.226;2022-11-20T16:02:46;94049.97;;;-1.37;91.96
30110;BME280;14965;50.660;13.226;2022-11-20T16:05:13;94042.19;;;-1.39;91.59
30110;BME280;14965;50.660;13.226;2022-11-20T16:07:40;94042.97;;;-1.42;91.53
30110;BME280;14965;50.660;13.226;2022-11-20T16:10:07;94046.44;;;-1.45;91.22
30110;BME280;14965;50.660;13.226;2022-11-20T16:12:33;94051.06;;;-1.53;91.08
30110;BME280;14965;50.660;13.226;2022-11-20T16:14:59;94056.09;;;-1.51;91.28
30110;BME280;14965;50.660;13.226;2022-11-20T16:17:25;94054.94;;;-1.54;91.21
30110;BME280;14965;50.660;13.226;2022-11-20T16:19:52;94051.44;;;-1.54;90.62
30110;BME280;14965;50.660;13.226;2022-11-20T16:22:18;94051.44;;;-1.54;90.89
30110;BME280;14965;50.660;13.226;2022-11-20T16:24:44;94049.09;;;-1.59;90.92
30110;BME280;14965;50.660;13.226;2022-11-20T16:27:10;94047.50;;;-1.71;89.85
30110;BME280;14965;50.660;13.226;2022-11-20T16:29:36;94042.09;;;-1.71;90.03
30110;BME280;14965;50.660;13.226;2022-11-20T16:32:02;94044.38;;;-1.73;90.14
30110;BME280;14965;50.660;13.226;2022-11-20T16:34:28;94033.97;;;-1.74;90.42
30110;BME280;14965;50.660;13.226;2022-11-20T16:36:55;94047.50;;;-1.74;89.94
30110;BME280;14965;50.660;13.226;2022-11-20T16:39:21;94043.59;;;-1.77;90.10
30110;BME280;14965;50.660;13.226;2022-11-20T16:41:47;94049.34;;;-1.86;90.06
30110;BME280;14965;50.660;13.226;2022-11-20T16:44:13;94050.13;;;-1.85;90.00
30110;BME280;14965;50.660;13.226;2022-11-20T16:46:39;94056.72;;;-1.83;90.12
30110;BME280;14965;50.660;13.226;2022-11-20T16:49:08;94048.59;;;-1.83;90.35
30110;BME280;14965;50.660;13.226;2022-11-20T16:51:36;94045.13;;;-1.83;89.73
30110;BME280;14965;50.660;13.226;2022-11-20T16:54:06;94050.88;;;-1.88;89.75
30110;BME280;14965;50.660;13.226;2022-11-20T16:56:32;94045.09;;;-1.90;89.27
30110;BME280;14965;50.660;13.226;2022-11-20T16:59:00;94040.03;;;-1.95;89.57
30110;BME280;14965;50.660;13.226;2022-11-20T17:01:28;94041.56;;;-1.98;89.52
30110;BME280;14965;50.660;13.226;2022-11-20T17:03:58;94041.53;;;-2.02;89.19
30110;BME280;14965;50.660;13.226;2022-11-20T17:06:26;94033.75;;;-2.10;89.10
30110;BME280;14965;50.660;13.226;2022-11-20T17:08:54;94042.19;;;-2.22;88.79
30110;BME280;14965;50.660;13.226;2022-11-20T17:11:22;94048.00;;;-2.24;89.29
30110;BME280;14965;50.660;13.226;2022-11-20T17:13:48;94052.56;;;-2.32;88.77
30110;BME280;14965;50.660;13.226;2022-11-20T17:16:17;94044.06;;;-2.34;88.79
30110;BME280;14965;50.660;13.226;2022-11-20T17:18:44;94044.44;;;-2.32;88.85
30110;BME280;14965;50.660;13.226;2022-11-20T17:21:11;94046.78;;;-2.34;89.14
30110;BME280;14965;50.660;13.226;2022-11-20T17:23:39;94043.63;;;-2.39;89.06
30110;BME280;14965;50.660;13.226;2022-11-20T17:26:07;94040.91;;;-2.39;88.68
30110;BME280;14965;50.660;13.226;2022-11-20T17:28:36;94044.03;;;-2.37;89.14
30110;BME280;14965;50.660;13.226;2022-11-20T17:31:05;94048.28;;;-2.36;88.89
30110;BME280;14965;50.660;13.226;2022-11-20T17:33:33;94045.97;;;-2.34;89.19
30110;BME280;14965;50.660;13.226;2022-11-20T17:35:59;94045.19;;;-2.35;88.79
30110;BME280;14965;50.660;13.226;2022-11-20T17:38:25;94042.47;;;-2.38;88.57
30110;BME280;14965;50.660;13.226;2022-11-20T17:40:51;94030.88;;;-2.39;88.72
30110;BME280;14965;50.660;13.226;2022-11-20T17:43:17;94032.03;;;-2.40;88.64
30110;BME280;14965;50.660;13.226;2022-11-20T17:45:45;94033.19;;;-2.41;88.43
30110;BME280;14965;50.660;13.226;2022-11-20T17:48:11;94021.97;;;-2.46;88.34
30110;BME280;14965;50.660;13.226;2022-11-20T17:50:37;94013.81;;;-2.54;87.76
30110;BME280;14965;50.660;13.226;2022-11-20T17:53:03;94013.81;;;-2.54;88.17
30110;BME280;14965;50.660;13.226;2022-11-20T17:55:29;94014.13;;;-2.62;88.50
30110;BME280;14965;50.660;13.226;2022-11-20T17:57:55;94014.47;;;-2.64;88.59
30110;BME280;14965;50.660;13.226;2022-11-20T18:00:21;94027.22;;;-2.64;88.44
30110;BME280;14965;50.660;13.226;2022-11-20T18:02:49;94014.88;;;-2.65;88.25
30110;BME280;14965;50.660;13.226;2022-11-20T18:05:15;94017.97;;;-2.67;88.42
30110;BME280;14965;50.660;13.226;2022-11-20T18:07:41;93999.38;;;-2.72;88.25
30110;BME280;14965;50.660;13.226;2022-11-20T18:10:08;94009.00;;;-2.74;88.40
30110;BME280;14965;50.660;13.226;2022-11-20T18:12:34;94008.97;;;-2.78;88.19
30110;BME280;14965;50.660;13.226;2022-11-20T18:15:00;94001.22;;;-2.83;87.92
30110;BME280;14965;50.660;13.226;2022-11-20T18:17:26;94012.00;;;-2.87;87.54
30110;BME280;14965;50.660;13.226;2022-11-20T18:19:53;94016.59;;;-2.91;87.87